Sydney, Australia

12:47 PM AEST on September 20, 2017 (GMT +1000)
Kingsford Smith International

Weather History for YSSY - May, 2013

Change the Weather History Date:

Sunday, May 19, 2013

  Actual Average Record
Temperature  
Mean Temperature 58 °F -  
Max Temperature 68 °F 65 °F 78 °F (2003)
Min Temperature 47 °F 48 °F 47 °F (2013)
Degree Days  
Heating Degree Days 8    
Growing Degree Days 8 (Base 50)    
Moisture  
Dew Point 35 °F    
Average Humidity 42    
Maximum Humidity 62    
Minimum Humidity 15    
Precipitation  
Precipitation 0.00 in 0.15 in - ()
Sea Level Pressure  
Sea Level Pressure 29.98 in    
Wind  
Wind Speed 12 mph ()    
Max Wind Speed 17 mph    
Max Gust Speed -    
Visibility 8.8 miles    
Events      
Averages and records for this station are not official NWS values.
T = Trace of Precipitation, MM = Missing Value Source: Averaged Metar Reports

Daily Weather History Graph

Daily Weather History Graph

Search for Another Location

Airport or City:

Trip Planner

Search our weather history database for the weather conditions in past years. The results will help you decide how hot, cold, wet, or windy it might be!

Date:

Astronomy

May. 19, 2013 Rise Set
Actual Time 6:43 AM AEST 4:59 PM AEST
Civil Twilight 6:16 AM AEST 5:26 PM AEST
Nautical Twilight 5:46 AM AEST 5:57 PM AEST
Astronomical Twilight 5:16 AM AEST 6:27 PM AEST
Moon 12:53 PM AEST (5/19) 12:02 AM AEST (5/19)
Length of Visible Light 11h 10m
Length of Day
10h 16m
First Quarter, 59% of the Moon is Illuminated
May 19
First Quarter
May 25
Full
Jun 1
Last Quarter
Jun 9
New
Jun 17
First Quarter

Hourly Weather History & Observations

Time (AEST) Temp. Dew Point Humidity Pressure Visibility Wind Dir Wind Speed Gust Speed Precip Events Conditions
12:00 AM 53 °F 34 °F 37% 29.98 in 19 mi WSW 11.5 mph - -   Partly Cloudy
12:00 AM 53.6 °F 33.8 °F 47% 29.98 in - WSW 11.5 mph - N/A   Clear
12:30 AM 53.6 °F 33.8 °F 47% 29.95 in - West 17.3 mph - N/A   Clear
1:00 AM 54 °F 34 °F 35% 29.97 in - West 16.1 mph - -  
1:00 AM 53.6 °F 33.8 °F 47% 29.95 in - West 16.1 mph - N/A   Clear
1:30 AM 53.6 °F 33.8 °F 47% 29.95 in - West 13.8 mph - N/A   Clear
2:00 AM 51.8 °F 35.6 °F 54% 29.95 in - West 16.1 mph - N/A   Clear
2:30 AM 50.0 °F 35.6 °F 58% 29.95 in - West 15.0 mph - N/A   Clear
3:00 AM 49 °F 36 °F 49% 29.96 in 19 mi WNW 12.7 mph - -   Partly Cloudy
3:00 AM 50.0 °F 35.6 °F 58% 29.95 in - WNW 12.7 mph - N/A   Clear
3:30 AM 48.2 °F 35.6 °F 62% 29.95 in - West 12.7 mph - N/A   Clear
4:00 AM 49 °F 35 °F 47% 29.97 in - West 12.7 mph - -  
4:00 AM 48.2 °F 35.6 °F 62% 29.95 in - West 12.7 mph - N/A   Clear
4:30 AM 48.2 °F 35.6 °F 62% 29.95 in 6.2 mi WNW 12.7 mph - N/A   Partly Cloudy
5:00 AM 48.2 °F 35.6 °F 62% 29.95 in 6.2 mi WNW 11.5 mph - N/A   Partly Cloudy
5:30 AM 48.2 °F 35.6 °F 62% 29.98 in 6.2 mi WNW 11.5 mph - N/A   Partly Cloudy
6:00 AM 47 °F 35 °F 53% 29.99 in 25 mi WNW 10.4 mph - -   Partly Cloudy
6:00 AM 48.2 °F 35.6 °F 62% 29.98 in 6.2 mi WNW 10.4 mph - N/A   Partly Cloudy
6:30 AM 48.2 °F 35.6 °F 62% 29.98 in 6.2 mi NW 10.4 mph - N/A   Scattered Clouds
7:00 AM 49 °F 35 °F 48% 30.01 in - NW 9.2 mph - -  
7:00 AM 50.0 °F 35.6 °F 58% 30.01 in 6.2 mi NW 9.2 mph - N/A   Scattered Clouds
7:30 AM 50.0 °F 35.6 °F 58% 30.01 in 6.2 mi NW 9.2 mph - N/A   Scattered Clouds
8:00 AM 53.6 °F 35.6 °F 51% 30.01 in 6.2 mi NW 8.1 mph - N/A   Mostly Cloudy
8:30 AM 53.6 °F 35.6 °F 51% 30.01 in 6.2 mi NW 11.5 mph - N/A   Mostly Cloudy
9:00 AM 55 °F 35 °F 35% 30.03 in 22 mi WNW 13.8 mph - -   Partly Cloudy
9:00 AM 55.4 °F 35.6 °F 47% 30.01 in 6.2 mi WNW 13.8 mph - N/A   Partly Cloudy
9:30 AM 57.2 °F 35.6 °F 44% 30.01 in 6.2 mi West 16.1 mph - N/A   Partly Cloudy
10:00 AM 58 °F 37 °F 34% 30.03 in - West 15.0 mph - -  
10:00 AM 59.0 °F 37.4 °F 45% 30.01 in 6.2 mi West 15.0 mph - N/A   Partly Cloudy
10:30 AM 60.8 °F 37.4 °F 42% 30.01 in - West 15.0 mph - N/A   Clear
11:00 AM 62.6 °F 35.6 °F 37% 30.01 in - West 16.1 mph - N/A   Clear
11:30 AM 62.6 °F 33.8 °F 34% 29.98 in - West 16.1 mph - N/A   Clear
12:00 PM 64 °F 36 °F 23% 29.99 in 19 mi West 13.8 mph - -   Partly Cloudy
12:00 PM 64.4 °F 35.6 °F 34% 29.98 in - West 13.8 mph - N/A   Clear
12:30 PM 64.4 °F 32.0 °F 30% 29.98 in - West 12.7 mph - N/A   Clear
1:00 PM 65 °F 32 °F 18% 29.97 in - WSW 10.4 mph - -  
1:00 PM 64.4 °F 32.0 °F 30% 29.95 in - WSW 10.4 mph - N/A   Clear
1:30 PM 66.2 °F 30.2 °F 26% 29.95 in - WSW 15.0 mph - N/A   Clear
2:00 PM 64.4 °F 32.0 °F 30% 29.95 in - WSW 12.7 mph - N/A   Clear
2:30 PM 68.0 °F 33.8 °F 28% 29.95 in - West 15.0 mph - N/A   Clear
3:00 PM 65 °F 31 °F 17% 29.95 in 25 mi WSW 15.0 mph - -   Partly Cloudy
3:00 PM 66.2 °F 30.2 °F 26% 29.95 in - WSW 15.0 mph - N/A   Clear
3:30 PM 66.2 °F 30.2 °F 26% 29.95 in - WSW 13.8 mph - N/A   Clear
4:00 PM 66 °F 30 °F 15% 29.96 in - West 15.0 mph - -  
4:00 PM 66.2 °F 30.2 °F 26% 29.95 in - West 15.0 mph - N/A   Clear
4:30 PM 66.2 °F 32.0 °F 28% 29.95 in - West 15.0 mph - N/A   Clear
5:00 PM 64.4 °F 32.0 °F 30% 29.95 in - West 15.0 mph - N/A   Clear
5:30 PM 62.6 °F 32.0 °F 32% 29.98 in - West 15.0 mph - N/A   Clear
6:00 PM 62 °F 33 °F 22% 29.99 in 25 mi West 16.1 mph - -   Smoke
6:00 PM 62.6 °F 33.8 °F 34% 29.98 in - West 16.1 mph - N/A   Clear
6:30 PM 60.8 °F 33.8 °F 36% 29.98 in - West 17.3 mph - N/A   Clear
7:00 PM 59 °F 34 °F 27% 30.01 in - West 17.3 mph - -  
7:00 PM 59.0 °F 33.8 °F 39% 29.98 in - West 17.3 mph - N/A   Clear
7:30 PM 59.0 °F 33.8 °F 39% 30.01 in - West 17.3 mph - N/A   Clear
8:00 PM 57.2 °F 35.6 °F 44% 30.01 in - West 9.2 mph - N/A   Clear
8:30 PM 57.2 °F 35.6 °F 44% 30.01 in - West 10.4 mph - N/A   Clear
9:00 PM 56 °F 36 °F 36% 30.03 in 25 mi West 12.7 mph - -   Partly Cloudy
9:00 PM 55.4 °F 37.4 °F 51% 30.01 in - West 12.7 mph - N/A   Clear
9:30 PM 53.6 °F 37.4 °F 54% 30.01 in - West 11.5 mph - N/A   Clear
10:00 PM 54 °F 36 °F 40% 30.04 in - West 10.4 mph - -  
10:00 PM 53.6 °F 37.4 °F 54% 30.04 in - West 10.4 mph - N/A   Clear
10:30 PM 53.6 °F 37.4 °F 54% 30.01 in - West 12.7 mph - N/A   Clear
11:00 PM 53.6 °F 37.4 °F 54% 30.01 in - West 12.7 mph - N/A   Clear
11:30 PM 53.6 °F 37.4 °F 54% 30.01 in - West 13.8 mph - N/A   Clear